createdAt,value
2023-04-18T00:01:40.878Z,14.98
2023-04-18T00:04:09.719Z,13.82
2023-04-18T00:06:37.301Z,15.85
2023-04-18T00:09:04.826Z,17.10
2023-04-18T00:11:32.337Z,14.80
2023-04-18T00:13:59.848Z,14.45
2023-04-18T00:16:28.406Z,13.32
2023-04-18T00:18:57.207Z,14.52
2023-04-18T00:21:25.814Z,15.95
2023-04-18T00:23:53.327Z,13.40
2023-04-18T00:26:20.793Z,16.73
2023-04-18T00:28:49.323Z,14.75
2023-04-18T00:31:18.182Z,14.00
2023-04-18T00:33:45.585Z,12.25
2023-04-18T00:36:13.051Z,14.43
2023-04-18T00:38:42.328Z,14.77
2023-04-18T00:41:10.062Z,12.50
2023-04-18T00:43:37.516Z,13.38
2023-04-18T00:46:05.072Z,15.45
2023-04-18T00:48:32.614Z,12.75
2023-04-18T00:51:00.600Z,13.45
2023-04-18T00:53:28.856Z,13.23
2023-04-18T00:55:56.495Z,12.43
2023-04-18T00:58:25.354Z,12.02
2023-04-18T01:00:54.493Z,12.25
2023-04-18T01:03:23.061Z,13.70
2023-04-18T01:05:50.606Z,12.38
2023-04-18T01:08:19.604Z,13.60
2023-04-18T01:10:47.430Z,10.80
2023-04-18T01:13:17.454Z,12.70
2023-04-18T01:15:45.941Z,13.38
2023-04-18T01:18:19.192Z,11.95
2023-04-18T01:20:47.807Z,9.35
2023-04-18T01:23:15.880Z,10.43
2023-04-18T01:25:43.577Z,12.52
2023-04-18T01:28:11.389Z,13.95
2023-04-18T01:30:38.964Z,11.23
2023-04-18T01:33:06.742Z,11.95
2023-04-18T01:35:34.895Z,16.50
2023-04-18T01:38:02.390Z,8.98
2023-04-18T01:40:32.634Z,10.93
2023-04-18T01:43:00.726Z,11.27
2023-04-18T01:45:28.231Z,12.15
2023-04-18T01:47:56.029Z,13.77
2023-04-18T01:50:23.541Z,10.90
2023-04-18T01:52:50.988Z,12.40
2023-04-18T01:55:18.397Z,11.13
2023-04-18T01:57:45.990Z,14.68
2023-04-18T02:00:13.665Z,12.95
2023-04-18T02:02:44.026Z,16.35
2023-04-18T02:05:12.014Z,14.75
2023-04-18T02:07:41.068Z,15.27
2023-04-18T02:10:08.930Z,11.10
2023-04-18T02:12:36.499Z,14.07
2023-04-18T02:15:04.257Z,18.20
2023-04-18T02:17:36.443Z,13.07
2023-04-18T02:20:04.054Z,11.82
2023-04-18T02:22:31.530Z,14.02
2023-04-18T02:25:01.214Z,15.38
2023-04-18T02:27:28.592Z,17.42
2023-04-18T02:29:57.958Z,15.77
2023-04-18T02:32:25.481Z,14.07
2023-04-18T02:34:52.960Z,15.05
2023-04-18T02:37:20.381Z,15.82
2023-04-18T02:39:47.798Z,16.90
2023-04-18T02:42:15.533Z,17.05
2023-04-18T02:44:42.912Z,16.33
2023-04-18T02:47:10.390Z,17.52
2023-04-18T02:49:41.440Z,16.25
2023-04-18T02:52:08.914Z,15.63
2023-04-18T02:54:36.646Z,16.67
2023-04-18T02:57:09.017Z,17.20
2023-04-18T03:00:04.215Z,19.20
2023-04-18T03:02:53.165Z,18.23
2023-04-18T03:05:31.333Z,16.80
2023-04-18T03:08:02.274Z,18.80
2023-04-18T03:10:31.367Z,19.67
2023-04-18T03:12:58.975Z,16.45
2023-04-18T03:15:28.073Z,18.88
2023-04-18T03:17:55.701Z,16.50
2023-04-18T03:20:24.190Z,16.95
2023-04-18T03:22:52.765Z,20.15
2023-04-18T03:25:24.656Z,21.00
2023-04-18T03:27:53.732Z,18.98
2023-04-18T03:30:23.272Z,20.40
2023-04-18T03:32:56.171Z,19.45
2023-04-18T03:35:23.835Z,19.58
2023-04-18T03:37:51.539Z,21.15
2023-04-18T03:40:24.700Z,20.27
2023-04-18T03:42:55.432Z,19.13
2023-04-18T03:45:22.980Z,21.60
2023-04-18T03:47:50.810Z,19.45
2023-04-18T03:50:19.034Z,18.73
2023-04-18T03:52:48.048Z,18.60
2023-04-18T03:55:17.574Z,18.20
2023-04-18T03:57:44.989Z,18.15
2023-04-18T04:00:19.792Z,16.75
2023-04-18T04:03:02.195Z,18.42
2023-04-18T04:05:29.913Z,18.52
2023-04-18T04:07:57.412Z,18.30
2023-04-18T04:10:24.963Z,16.65
2023-04-18T04:12:53.732Z,17.50
2023-04-18T04:15:21.808Z,19.27
2023-04-18T04:18:08.960Z,19.15
2023-04-18T04:20:39.782Z,18.85
2023-04-18T04:23:12.752Z,16.40
2023-04-18T04:25:41.383Z,17.98
2023-04-18T04:28:18.113Z,18.17
2023-04-18T04:30:55.477Z,21.08
2023-04-18T04:33:25.704Z,17.85
2023-04-18T04:35:57.365Z,17.10
2023-04-18T04:38:25.210Z,19.58
2023-04-18T04:40:54.526Z,18.88
2023-04-18T04:43:22.058Z,19.88
2023-04-18T04:45:51.634Z,19.65
2023-04-18T04:48:24.787Z,15.85
2023-04-18T04:50:54.321Z,16.38
2023-04-18T04:53:22.208Z,15.82
2023-04-18T04:55:49.949Z,16.00
2023-04-18T04:58:18.613Z,18.05
2023-04-18T05:01:00.692Z,17.50
2023-04-18T05:03:28.388Z,18.08
2023-04-18T05:05:56.040Z,18.92
2023-04-18T05:08:23.512Z,16.42
2023-04-18T05:10:51.136Z,19.92
2023-04-18T05:13:18.595Z,16.58
2023-04-18T05:15:45.993Z,19.45
2023-04-18T05:18:14.398Z,14.75
2023-04-18T05:20:41.798Z,16.85
2023-04-18T05:23:09.256Z,17.00
2023-04-18T05:25:37.195Z,14.07
2023-04-18T05:28:04.861Z,15.77
2023-04-18T05:30:32.365Z,21.98
2023-04-18T05:32:59.821Z,22.65
2023-04-18T05:35:27.360Z,17.30
2023-04-18T05:37:54.769Z,16.88
2023-04-18T05:40:22.327Z,19.27
2023-04-18T05:42:49.838Z,18.30
2023-04-18T05:45:17.349Z,18.95
2023-04-18T05:47:44.874Z,18.10
2023-04-18T05:50:12.336Z,17.63
2023-04-18T05:52:39.821Z,19.27
2023-04-18T05:55:07.596Z,15.63
2023-04-18T05:57:34.996Z,17.75
2023-04-18T06:00:02.546Z,14.82
2023-04-18T06:02:40.292Z,14.82
2023-04-18T06:05:08.763Z,13.10
2023-04-18T06:07:36.453Z,13.65
2023-04-18T06:10:05.669Z,13.02
2023-04-18T06:12:33.205Z,15.88
2023-04-18T06:15:00.699Z,10.13
2023-04-18T06:17:28.174Z,13.88
2023-04-18T06:19:55.686Z,12.90
2023-04-18T06:22:23.096Z,11.65
2023-04-18T06:24:50.602Z,13.05
2023-04-18T06:27:30.247Z,10.23
2023-04-18T06:29:58.972Z,11.65
2023-04-18T06:32:26.674Z,12.25
2023-04-18T06:34:54.153Z,11.63
2023-04-18T06:37:21.667Z,11.50
2023-04-18T06:39:49.054Z,10.55
2023-04-18T06:42:16.532Z,10.43
2023-04-18T06:44:48.773Z,8.98
2023-04-18T06:47:16.415Z,9.93
2023-04-18T06:49:43.807Z,12.20
2023-04-18T06:52:11.241Z,10.27
2023-04-18T06:54:38.745Z,11.98
2023-04-18T06:57:06.383Z,10.55
2023-04-18T06:59:33.828Z,16.33
2023-04-18T07:02:01.335Z,11.57
2023-04-18T07:04:28.971Z,10.60
2023-04-18T07:06:56.450Z,15.48
2023-04-18T07:09:24.103Z,11.02
2023-04-18T07:11:52.601Z,8.82
2023-04-18T07:14:22.109Z,12.13
2023-04-18T07:16:49.670Z,10.63
2023-04-18T07:19:17.237Z,11.20
2023-04-18T07:21:46.067Z,9.80
2023-04-18T07:24:13.983Z,14.02
2023-04-18T07:26:42.151Z,12.00
2023-04-18T07:29:09.695Z,10.40
2023-04-18T07:31:37.340Z,11.10
2023-04-18T07:34:04.915Z,11.63
2023-04-18T07:36:32.681Z,13.10
2023-04-18T07:39:00.183Z,8.13
2023-04-18T07:41:27.713Z,8.88
2023-04-18T07:43:55.265Z,9.93
2023-04-18T07:46:22.771Z,7.43
2023-04-18T07:48:50.317Z,9.85
2023-04-18T07:51:17.839Z,9.45
2023-04-18T07:53:45.389Z,10.93
2023-04-18T07:56:14.313Z,10.15
2023-04-18T07:58:41.769Z,7.38
2023-04-18T08:01:13.480Z,9.45
2023-04-18T08:03:42.000Z,8.32
2023-04-18T08:06:09.878Z,9.90
2023-04-18T08:08:37.473Z,12.20
2023-04-18T08:11:04.894Z,9.68
2023-04-18T08:13:32.591Z,9.50
2023-04-18T08:16:02.213Z,13.45
2023-04-18T08:18:29.836Z,9.45
2023-04-18T08:20:57.381Z,11.80
2023-04-18T08:23:24.877Z,11.02
2023-04-18T08:25:52.313Z,10.30
2023-04-18T08:28:20.054Z,10.60
2023-04-18T08:30:51.350Z,12.93
2023-04-18T08:33:19.615Z,8.70
2023-04-18T08:35:47.084Z,6.22
2023-04-18T08:38:14.815Z,6.65
2023-04-18T08:40:43.744Z,12.48
2023-04-18T08:43:14.120Z,9.50
2023-04-18T08:45:42.149Z,9.45
2023-04-18T08:48:13.813Z,9.07
2023-04-18T08:50:41.950Z,11.48
2023-04-18T08:53:09.823Z,10.75
2023-04-18T08:55:37.513Z,10.50
2023-04-18T08:58:06.998Z,12.55
2023-04-18T09:00:35.251Z,8.65
2023-04-18T09:03:03.104Z,9.90
2023-04-18T09:05:30.770Z,8.10
2023-04-18T09:07:58.265Z,7.50
2023-04-18T09:10:28.736Z,10.35
2023-04-18T09:12:56.973Z,10.27
2023-04-18T09:15:27.280Z,9.52
2023-04-18T09:17:56.469Z,8.68
2023-04-18T09:20:44.693Z,9.55
2023-04-18T09:23:14.759Z,8.68
2023-04-18T09:25:45.133Z,9.18
2023-04-18T09:28:45.550Z,5.93
2023-04-18T09:31:15.450Z,7.85
2023-04-18T09:33:52.835Z,14.90
2023-04-18T09:36:24.457Z,10.32
2023-04-18T09:38:56.004Z,8.82
2023-04-18T09:41:24.474Z,9.00
2023-04-18T09:44:08.988Z,8.60
2023-04-18T09:46:37.842Z,11.98
2023-04-18T09:49:05.431Z,8.00
2023-04-18T09:51:34.185Z,13.55
2023-04-18T09:54:02.344Z,8.05
2023-04-18T09:56:31.991Z,7.40
2023-04-18T09:59:07.643Z,7.97
2023-04-18T10:01:35.850Z,12.68
2023-04-18T10:04:04.411Z,9.27
2023-04-18T10:06:33.496Z,8.63
2023-04-18T10:09:01.972Z,9.68
2023-04-18T10:11:30.718Z,9.95
2023-04-18T10:13:59.503Z,8.40
2023-04-18T10:16:27.618Z,7.93
2023-04-18T10:18:55.217Z,8.70
2023-04-18T10:21:22.729Z,7.35
2023-04-18T10:23:50.436Z,7.35
2023-04-18T10:26:17.959Z,7.75
2023-04-18T10:28:57.230Z,7.70
2023-04-18T10:31:26.520Z,9.93
2023-04-18T10:36:31.055Z,8.50
2023-04-18T10:39:05.891Z,6.78
2023-04-18T10:44:19.869Z,6.78
2023-04-18T10:46:53.514Z,6.43
2023-04-18T10:49:21.939Z,7.78
2023-04-18T10:51:51.289Z,6.68
2023-04-18T10:54:28.529Z,6.35
2023-04-18T10:56:56.884Z,7.70
2023-04-18T10:59:25.342Z,13.23
2023-04-18T11:01:57.328Z,8.40
2023-04-18T11:04:25.872Z,7.50
2023-04-18T11:07:00.454Z,16.30
2023-04-18T11:09:27.924Z,11.60
2023-04-18T11:12:04.326Z,8.27
2023-04-18T11:14:41.753Z,6.70
2023-04-18T11:17:27.864Z,9.48
2023-04-18T11:20:06.257Z,9.80
2023-04-18T11:22:33.760Z,7.93
2023-04-18T11:25:02.006Z,9.95
2023-04-18T11:27:30.428Z,7.22
2023-04-18T11:29:58.234Z,8.82
2023-04-18T11:32:26.007Z,13.38
2023-04-18T11:34:54.254Z,8.25
2023-04-18T11:37:22.309Z,8.38
2023-04-18T11:39:49.819Z,9.30
2023-04-18T11:42:17.317Z,10.00
2023-04-18T11:44:49.325Z,10.15
2023-04-18T11:47:23.978Z,8.05
2023-04-18T11:50:01.545Z,14.43
2023-04-18T11:52:29.830Z,8.52
2023-04-18T11:54:58.017Z,8.00
2023-04-18T11:57:26.484Z,9.20
2023-04-18T11:59:58.007Z,11.48
2023-04-18T12:02:27.143Z,13.07
2023-04-18T12:04:58.728Z,12.80
2023-04-18T12:07:40.076Z,10.85
2023-04-18T12:10:09.021Z,7.75
2023-04-18T12:12:36.920Z,11.52
2023-04-18T12:15:06.627Z,10.95
2023-04-18T12:17:34.477Z,8.60
2023-04-18T12:20:02.481Z,10.30
2023-04-18T12:22:41.988Z,11.98
2023-04-18T12:25:27.394Z,8.50
2023-04-18T12:27:59.446Z,6.80
2023-04-18T12:30:28.599Z,9.05
2023-04-18T12:33:00.316Z,9.90
2023-04-18T12:35:28.475Z,13.38
2023-04-18T12:37:56.878Z,11.13
2023-04-18T12:40:26.216Z,10.80
2023-04-18T12:42:54.454Z,13.10
2023-04-18T12:45:22.545Z,12.43
2023-04-18T12:47:51.452Z,11.43
2023-04-18T12:50:20.461Z,12.27
2023-04-18T12:52:47.998Z,12.77
2023-04-18T12:55:15.814Z,18.52
2023-04-18T12:57:43.927Z,18.85
2023-04-18T13:00:13.148Z,10.70
2023-04-18T13:02:42.488Z,11.07
2023-04-18T13:05:10.982Z,12.38
2023-04-18T13:07:40.528Z,11.68
2023-04-18T13:10:11.987Z,10.48
2023-04-18T13:12:40.811Z,11.55
2023-04-18T13:15:08.910Z,9.88
2023-04-18T13:17:36.914Z,13.95
2023-04-18T13:20:10.541Z,13.80
2023-04-18T13:22:38.510Z,23.88
2023-04-18T13:25:07.224Z,10.68
2023-04-18T13:27:35.050Z,13.55
2023-04-18T13:30:02.947Z,13.45
2023-04-18T13:32:30.428Z,14.10
2023-04-18T13:34:58.084Z,15.00
2023-04-18T13:37:26.036Z,10.40
2023-04-18T13:39:53.909Z,11.40
2023-04-18T13:42:21.688Z,13.40
2023-04-18T13:44:50.192Z,12.18
2023-04-18T13:47:18.034Z,15.00
2023-04-18T13:49:45.464Z,10.00
2023-04-18T13:52:13.027Z,12.68
2023-04-18T13:54:41.447Z,11.07
2023-04-18T13:57:11.783Z,12.25
2023-04-18T13:59:42.977Z,15.98
2023-04-18T14:02:10.859Z,12.23
2023-04-18T14:04:39.019Z,12.73
2023-04-18T14:07:08.120Z,13.90
2023-04-18T14:09:35.635Z,14.07
2023-04-18T14:12:03.260Z,9.80
2023-04-18T14:14:30.901Z,15.98
2023-04-18T14:16:58.410Z,8.63
2023-04-18T14:19:25.939Z,10.00
2023-04-18T14:21:53.453Z,13.73
2023-04-18T14:24:21.306Z,12.63
2023-04-18T14:26:48.839Z,9.10
2023-04-18T14:29:16.486Z,13.90
2023-04-18T14:31:44.309Z,11.93
2023-04-18T14:34:11.818Z,12.15
2023-04-18T14:36:39.245Z,10.50
2023-04-18T14:39:06.932Z,13.88
2023-04-18T14:41:34.453Z,9.85
2023-04-18T14:44:03.568Z,13.35
2023-04-18T14:46:31.286Z,10.25
2023-04-18T14:48:58.869Z,10.60
2023-04-18T14:51:26.336Z,10.13
2023-04-18T14:53:53.926Z,10.20
2023-04-18T14:56:23.572Z,12.38
2023-04-18T14:58:51.622Z,15.30
2023-04-18T15:01:19.224Z,12.55
2023-04-18T15:03:47.042Z,10.18
2023-04-18T15:06:14.720Z,12.52
2023-04-18T15:08:44.482Z,10.68
2023-04-18T15:11:15.166Z,9.90
2023-04-18T15:13:42.905Z,30.02
2023-04-18T15:16:10.292Z,17.10
2023-04-18T15:18:37.811Z,10.88
2023-04-18T15:21:05.430Z,10.63
2023-04-18T15:23:34.181Z,15.18
2023-04-18T15:26:01.758Z,10.73
2023-04-18T15:28:29.638Z,11.88
2023-04-18T15:30:57.106Z,10.45
2023-04-18T15:33:25.248Z,9.15
2023-04-18T15:35:52.852Z,12.23
2023-04-18T15:38:20.374Z,10.88
2023-04-18T15:40:48.066Z,9.73
2023-04-18T15:43:17.291Z,11.43
2023-04-18T15:45:45.045Z,13.85
2023-04-18T15:48:13.261Z,10.98
2023-04-18T15:50:42.468Z,11.27
2023-04-18T15:53:10.041Z,12.40
2023-04-18T15:55:37.597Z,13.68
2023-04-18T15:58:06.943Z,23.40
2023-04-18T16:00:34.513Z,15.23
2023-04-18T16:03:02.084Z,11.68
2023-04-18T16:05:29.670Z,16.63
2023-04-18T16:07:58.125Z,15.73
2023-04-18T16:10:25.649Z,17.60
2023-04-18T16:12:53.750Z,20.85
2023-04-18T16:15:21.272Z,12.52
2023-04-18T16:17:48.706Z,14.10
2023-04-18T16:20:16.221Z,18.15
2023-04-18T16:22:43.615Z,14.85
2023-04-18T16:25:11.215Z,14.73
2023-04-18T16:27:43.007Z,11.32
2023-04-18T16:30:10.661Z,13.60
2023-04-18T16:32:38.264Z,10.85
2023-04-18T16:35:07.785Z,11.80
2023-04-18T16:37:35.304Z,11.02
2023-04-18T16:40:03.017Z,14.98
2023-04-18T16:42:30.751Z,15.35
2023-04-18T16:44:58.247Z,13.57
2023-04-18T16:47:25.910Z,14.95
2023-04-18T16:49:54.126Z,14.38
2023-04-18T16:52:22.213Z,16.65
2023-04-18T16:54:51.971Z,10.70
2023-04-18T16:57:19.964Z,14.77
2023-04-18T16:59:47.487Z,15.52
2023-04-18T17:02:15.214Z,15.70
2023-04-18T17:04:42.809Z,13.05
2023-04-18T17:07:10.320Z,15.55
2023-04-18T17:09:37.777Z,13.48
2023-04-18T17:12:05.226Z,16.65
2023-04-18T17:14:33.234Z,15.90
2023-04-18T17:17:00.690Z,17.55
2023-04-18T17:19:28.169Z,21.05
2023-04-18T17:21:55.736Z,23.52
2023-04-18T17:24:23.187Z,15.70
2023-04-18T17:26:50.941Z,16.08
2023-04-18T17:29:18.988Z,16.25
2023-04-18T17:31:49.391Z,16.73
2023-04-18T17:34:17.039Z,17.25
2023-04-18T17:36:44.495Z,19.13
2023-04-18T17:39:12.294Z,16.25
2023-04-18T17:41:40.346Z,15.13
2023-04-18T17:44:08.380Z,17.13
2023-04-18T17:46:36.366Z,14.07
2023-04-18T17:49:04.718Z,18.25
2023-04-18T17:51:32.375Z,18.13
2023-04-18T17:53:59.767Z,15.93
2023-04-18T17:56:27.482Z,17.25
2023-04-18T17:58:56.573Z,15.93
2023-04-18T18:01:26.138Z,19.02
2023-04-18T18:03:54.220Z,18.70
2023-04-18T18:06:22.018Z,23.48
2023-04-18T18:08:49.485Z,19.13
2023-04-18T18:11:16.973Z,20.67
2023-04-18T18:13:46.410Z,19.67
2023-04-18T18:16:14.053Z,24.38
2023-04-18T18:18:41.999Z,22.30
2023-04-18T18:21:11.760Z,22.73
2023-04-18T18:23:39.465Z,20.92
2023-04-18T18:26:07.156Z,19.85
2023-04-18T18:28:34.803Z,21.88
2023-04-18T18:31:02.387Z,19.85
2023-04-18T18:33:31.923Z,19.85
2023-04-18T18:35:59.322Z,19.38
2023-04-18T18:38:26.728Z,19.88
2023-04-18T18:40:57.582Z,18.05
2023-04-18T18:43:26.327Z,18.02
2023-04-18T18:45:57.574Z,16.25
2023-04-18T18:48:25.466Z,16.77
2023-04-18T18:50:52.874Z,17.30
2023-04-18T18:53:20.445Z,19.27
2023-04-18T18:55:50.692Z,18.50
2023-04-18T18:58:20.988Z,16.73
2023-04-18T19:00:50.053Z,18.13
2023-04-18T19:03:42.940Z,15.32
2023-04-18T19:06:11.049Z,13.88
2023-04-18T19:08:38.472Z,14.13
2023-04-18T19:11:05.997Z,13.95
2023-04-18T19:13:33.710Z,16.20
2023-04-18T19:16:01.188Z,15.40
2023-04-18T19:18:28.652Z,17.95
2023-04-18T19:20:58.601Z,17.13
2023-04-18T19:23:27.740Z,15.20
2023-04-18T19:25:55.260Z,18.48
2023-04-18T19:28:23.100Z,15.20
2023-04-18T19:30:50.881Z,14.65
2023-04-18T19:33:18.336Z,20.33
2023-04-18T19:35:45.830Z,17.85
2023-04-18T19:38:14.171Z,16.80
2023-04-18T19:40:41.654Z,20.73
2023-04-18T19:43:09.136Z,19.40
2023-04-18T19:45:36.615Z,15.75
2023-04-18T19:48:04.180Z,15.20
2023-04-18T19:50:31.697Z,15.63
2023-04-18T19:52:59.142Z,13.68
2023-04-18T19:55:26.815Z,20.27
2023-04-18T19:57:55.741Z,16.00
2023-04-18T20:00:23.618Z,18.02
2023-04-18T20:02:51.244Z,16.52
2023-04-18T20:05:19.166Z,16.60
2023-04-18T20:07:46.792Z,18.50
2023-04-18T20:10:14.238Z,18.58
2023-04-18T20:12:41.681Z,16.98
2023-04-18T20:15:09.355Z,19.52
2023-04-18T20:17:36.863Z,17.10
2023-04-18T20:20:04.721Z,16.45
2023-04-18T20:22:32.548Z,16.88
2023-04-18T20:25:01.109Z,14.50
2023-04-18T20:27:28.589Z,21.45
2023-04-18T20:29:57.337Z,12.80
2023-04-18T20:32:25.109Z,13.07
2023-04-18T20:34:53.530Z,14.80
2023-04-18T20:37:21.612Z,15.98
2023-04-18T20:39:48.975Z,14.15
2023-04-18T20:42:16.413Z,14.88
2023-04-18T20:44:44.810Z,14.57
2023-04-18T20:47:13.889Z,15.50
2023-04-18T20:49:42.877Z,14.93
2023-04-18T20:52:10.467Z,15.73
2023-04-18T20:54:38.027Z,12.77
2023-04-18T20:57:05.515Z,13.75
2023-04-18T20:59:32.976Z,11.85
2023-04-18T21:02:00.712Z,14.60
2023-04-18T21:04:28.490Z,12.15
2023-04-18T21:06:56.151Z,12.98
2023-04-18T21:09:23.528Z,11.38
2023-04-18T21:11:51.097Z,13.35
2023-04-18T21:14:19.912Z,10.50
2023-04-18T21:16:47.303Z,13.57
2023-04-18T21:19:15.284Z,14.13
2023-04-18T21:21:45.726Z,10.23
2023-04-18T21:24:13.503Z,14.55
2023-04-18T21:26:41.164Z,15.00
2023-04-18T21:29:08.542Z,9.75
2023-04-18T21:31:36.128Z,12.13
2023-04-18T21:34:04.461Z,10.93
2023-04-18T21:36:32.302Z,15.77
2023-04-18T21:39:00.978Z,12.13
2023-04-18T21:41:28.764Z,13.15
2023-04-18T21:43:56.219Z,11.75
2023-04-18T21:46:23.789Z,14.75
2023-04-18T21:48:51.280Z,13.23
2023-04-18T21:51:18.869Z,13.50
2023-04-18T21:53:46.342Z,11.68
2023-04-18T21:56:14.235Z,9.77
2023-04-18T21:58:41.744Z,13.13
2023-04-18T22:01:09.269Z,10.65
2023-04-18T22:03:37.180Z,12.52
2023-04-18T22:06:04.877Z,14.48
2023-04-18T22:08:32.586Z,13.95
2023-04-18T22:11:00.373Z,13.27
2023-04-18T22:13:33.192Z,13.43
2023-04-18T22:16:04.782Z,11.60
2023-04-18T22:18:36.906Z,14.07
2023-04-18T22:21:06.142Z,13.77
2023-04-18T22:23:33.638Z,9.75
2023-04-18T22:26:01.150Z,9.27
2023-04-18T22:28:28.694Z,13.18
2023-04-18T22:30:56.163Z,13.13
2023-04-18T22:33:23.641Z,9.32
2023-04-18T22:35:51.092Z,14.00
2023-04-18T22:38:18.505Z,17.08
2023-04-18T22:40:45.953Z,16.38
2023-04-18T22:43:13.418Z,13.02
2023-04-18T22:45:40.965Z,10.55
2023-04-18T22:48:11.511Z,12.45
2023-04-18T22:50:42.642Z,12.68
2023-04-18T22:53:15.120Z,11.57
2023-04-18T22:55:43.242Z,15.27
2023-04-18T22:58:11.183Z,13.85
2023-04-18T23:00:38.830Z,11.45
2023-04-18T23:03:06.364Z,11.15
2023-04-18T23:05:34.425Z,14.82
2023-04-18T23:08:01.878Z,12.93
2023-04-18T23:10:29.419Z,16.35
2023-04-18T23:12:57.025Z,11.95
2023-04-18T23:15:25.245Z,13.48
2023-04-18T23:17:53.417Z,14.13
2023-04-18T23:20:21.238Z,14.90
2023-04-18T23:22:51.600Z,12.75
2023-04-18T23:25:19.907Z,11.32
2023-04-18T23:27:48.122Z,16.88
2023-04-18T23:30:16.001Z,18.60
2023-04-18T23:32:43.557Z,14.20
2023-04-18T23:35:11.657Z,15.00
2023-04-18T23:37:39.050Z,14.93
2023-04-18T23:40:08.078Z,11.95
2023-04-18T23:42:35.817Z,16.05
2023-04-18T23:45:04.071Z,16.83
2023-04-18T23:47:31.594Z,14.55
2023-04-18T23:49:59.055Z,13.02
2023-04-18T23:52:26.570Z,13.88
2023-04-18T23:54:54.005Z,16.45
2023-04-18T23:57:21.431Z,13.80
2023-04-18T23:59:48.898Z,14.50
